Time;durP1;ratioP1;P1;durP2;ratioP2;P2;SDS_P1;SDS_P2;PMS_P1;PMS_P2;Temp;Humidity;BMP_temperature;BMP_pressure;BME280_temperature;BME280_humidity;BME280_pressure;Samples;Min_cycle;Max_cycle;Signal;HPM_P1;HPM_P2
2023/01/22 00:01:53;;;;;;;68.07;27.43;;;5.50;99.90;;;;;;4925282;28;20228;-68
2023/01/22 00:04:41;;;;;;;65.97;27.17;;;5.50;99.90;;;;;;4924569;28;20217;-69
2023/01/22 00:07:30;;;;;;;65.90;27.17;;;5.50;99.90;;;;;;4927255;28;20236;-68
2023/01/22 00:10:19;;;;;;;69.37;27.20;;;5.40;99.90;;;;;;4919848;28;20232;-67
2023/01/22 00:13:09;;;;;;;61.07;27.43;;;5.50;99.90;;;;;;4937542;28;20243;-67
2023/01/22 00:15:59;;;;;;;63.67;27.73;;;5.50;99.90;;;;;;4927711;28;20231;-67
2023/01/22 00:18:48;;;;;;;57.63;25.87;;;5.40;99.90;;;;;;4929557;28;20256;-66
2023/01/22 00:21:37;;;;;;;63.90;27.67;;;5.50;99.90;;;;;;4953225;28;20221;-66
2023/01/22 00:24:26;;;;;;;62.33;27.13;;;5.50;99.90;;;;;;4952778;28;20232;-71
2023/01/22 00:27:15;;;;;;;67.97;28.00;;;5.60;99.90;;;;;;4922805;28;20225;-70
2023/01/22 00:30:07;;;;;;;59.93;26.87;;;5.70;99.90;;;;;;4928036;28;20284;-70
2023/01/22 00:32:56;;;;;;;59.17;26.27;;;5.60;99.90;;;;;;4920370;28;20295;-69
2023/01/22 00:35:44;;;;;;;64.40;27.23;;;5.60;99.90;;;;;;4952577;28;20225;-69
2023/01/22 00:38:34;;;;;;;62.90;25.87;;;5.60;99.90;;;;;;4939868;28;20375;-69
2023/01/22 00:41:23;;;;;;;63.27;26.37;;;5.60;99.90;;;;;;4959865;28;20236;-71
2023/01/22 00:44:11;;;;;;;63.63;25.60;;;5.40;99.90;;;;;;4926632;29;20228;-70
2023/01/22 00:47:02;;;;;;;50.37;23.90;;;5.50;99.90;;;;;;4926836;28;20638;-70
2023/01/22 00:49:51;;;;;;;59.30;25.37;;;5.30;99.90;;;;;;4920488;28;20323;-71
2023/01/22 00:52:40;;;;;;;55.77;23.50;;;5.40;99.90;;;;;;4938099;28;20232;-71
2023/01/22 00:55:29;;;;;;;53.83;24.03;;;5.40;99.90;;;;;;4937284;28;20785;-72
2023/01/22 00:58:18;;;;;;;50.80;22.67;;;5.40;99.90;;;;;;4918789;28;20775;-71
2023/01/22 01:01:08;;;;;;;52.30;22.77;;;5.40;99.90;;;;;;4935086;28;20224;-69
2023/01/22 01:04:01;;;;;;;50.57;21.87;;;5.40;99.90;;;;;;4945986;28;20245;-70
2023/01/22 01:06:50;;;;;;;46.07;21.50;;;5.30;99.90;;;;;;4947856;28;20233;-71
2023/01/22 01:09:39;;;;;;;49.80;22.47;;;5.20;99.90;;;;;;4919647;28;20821;-70
2023/01/22 01:12:27;;;;;;;47.73;22.93;;;5.30;99.90;;;;;;4937834;28;20648;-72
2023/01/22 01:15:19;;;;;;;45.30;21.73;;;5.40;99.90;;;;;;4923932;28;20221;-72
2023/01/22 01:18:11;;;;;;;42.87;21.00;;;5.30;99.90;;;;;;4937902;28;20574;-73
2023/01/22 01:21:03;;;;;;;41.30;19.67;;;5.30;99.90;;;;;;4919234;28;20256;-73
2023/01/22 01:23:51;;;;;;;49.63;21.33;;;5.30;99.90;;;;;;4927066;28;20327;-71
2023/01/22 01:26:41;;;;;;;43.43;20.57;;;5.10;99.90;;;;;;4933676;28;20302;-73
2023/01/22 01:29:30;;;;;;;41.97;20.13;;;5.20;99.90;;;;;;4924082;28;20622;-72
2023/01/22 01:32:19;;;;;;;45.67;20.07;;;5.20;99.90;;;;;;4928477;28;20543;-71
2023/01/22 01:35:08;;;;;;;43.00;20.23;;;5.30;99.90;;;;;;4931942;28;20291;-69
2023/01/22 01:38:01;;;;;;;44.23;20.43;;;5.20;99.90;;;;;;4939218;28;20244;-71
2023/01/22 01:40:50;;;;;;;41.17;19.47;;;5.20;99.90;;;;;;4933616;28;20535;-71
2023/01/22 01:43:38;;;;;;;45.57;19.53;;;5.30;99.90;;;;;;4921638;28;20241;-70
2023/01/22 01:46:27;;;;;;;40.10;19.87;;;5.20;99.90;;;;;;4951827;28;20222;-71
2023/01/22 01:49:21;;;;;;;38.67;18.67;;;5.30;99.90;;;;;;4931048;28;20227;-70
2023/01/22 01:52:13;;;;;;;34.97;17.83;;;5.20;99.90;;;;;;4926892;28;20319;-70
2023/01/22 01:55:05;;;;;;;33.80;18.30;;;5.30;99.90;;;;;;4919422;28;20771;-72
2023/01/22 01:57:56;;;;;;;36.67;18.23;;;5.30;99.90;;;;;;4931903;28;20233;-71
2023/01/22 02:00:47;;;;;;;36.67;18.70;;;5.30;99.90;;;;;;4930450;28;20602;-71
2023/01/22 02:03:38;;;;;;;41.77;18.70;;;5.20;99.90;;;;;;4947660;28;20716;-70
2023/01/22 02:06:27;;;;;;;35.60;18.57;;;5.10;99.90;;;;;;4941364;28;20228;-72
2023/01/22 02:09:16;;;;;;;36.77;18.53;;;5.10;99.90;;;;;;4941304;28;20253;-71
2023/01/22 02:12:07;;;;;;;40.00;18.50;;;5.10;99.90;;;;;;4917413;28;20236;-71
2023/01/22 02:14:56;;;;;;;37.17;18.87;;;5.10;99.90;;;;;;4931079;28;20251;-70
2023/01/22 02:17:47;;;;;;;35.00;17.33;;;5.10;99.90;;;;;;4924508;28;20690;-70
2023/01/22 02:20:38;;;;;;;34.83;17.77;;;5.10;99.90;;;;;;4941927;28;20247;-69
2023/01/22 02:23:31;;;;;;;37.90;18.80;;;5.00;99.90;;;;;;4938898;28;20303;-69
2023/01/22 02:26:21;;;;;;;37.23;19.27;;;5.10;99.90;;;;;;4940102;28;21077;-69
2023/01/22 02:29:13;;;;;;;36.03;18.73;;;5.10;99.90;;;;;;4953405;28;20314;-69
2023/01/22 02:32:01;;;;;;;36.17;18.57;;;5.10;99.90;;;;;;4938625;28;20306;-69
2023/01/22 02:34:50;;;;;;;38.00;18.80;;;5.10;99.90;;;;;;4953637;28;20230;-69
2023/01/22 02:37:44;;;;;;;36.00;18.50;;;5.20;99.90;;;;;;4933812;28;20240;-69
2023/01/22 02:40:33;;;;;;;37.57;17.70;;;5.20;99.90;;;;;;4918304;28;20232;-70
2023/01/22 02:43:21;;;;;;;40.27;19.03;;;5.20;99.90;;;;;;4928895;28;20231;-68
2023/01/22 02:46:11;;;;;;;39.23;18.93;;;5.10;99.90;;;;;;4922730;28;20225;-68
2023/01/22 02:49:00;;;;;;;40.60;18.97;;;5.10;99.90;;;;;;4932666;28;20224;-70
2023/01/22 02:51:50;;;;;;;39.07;18.60;;;5.00;99.90;;;;;;4928240;28;20236;-71
2023/01/22 02:54:42;;;;;;;40.27;19.50;;;5.30;99.90;;;;;;4917370;29;20334;-71
2023/01/22 02:57:31;;;;;;;35.43;18.20;;;5.30;99.90;;;;;;4938678;28;20229;-72
2023/01/22 03:00:21;;;;;;;33.07;17.17;;;5.20;99.90;;;;;;4947238;28;20240;-72
2023/01/22 03:03:15;;;;;;;34.60;18.33;;;5.30;99.90;;;;;;4945141;28;20252;-70
2023/01/22 03:06:05;;;;;;;32.57;17.43;;;5.20;99.90;;;;;;4945670;28;20241;-72
2023/01/22 03:08:56;;;;;;;33.23;17.50;;;5.20;99.90;;;;;;4938688;28;20252;-72
2023/01/22 03:11:47;;;;;;;34.77;18.30;;;5.30;99.90;;;;;;4947158;28;20234;-71
2023/01/22 03:21:15;;;;;;;34.30;17.97;;;5.20;99.90;;;;;;4944566;28;20233;-69
2023/01/22 03:24:04;;;;;;;32.93;18.37;;;5.20;99.90;;;;;;4948395;28;20246;-69
2023/01/22 03:26:54;;;;;;;33.93;18.77;;;5.10;99.90;;;;;;4923738;29;20237;-69
2023/01/22 03:29:43;;;;;;;32.33;18.70;;;5.10;99.90;;;;;;4939117;28;20231;-70
2023/01/22 03:32:32;;;;;;;33.53;18.90;;;5.10;99.90;;;;;;4931390;28;20983;-70
2023/01/22 03:35:21;;;;;;;37.07;19.60;;;5.00;99.90;;;;;;4946441;28;20981;-68
2023/01/22 03:38:24;;;;;;;34.73;19.07;;;5.00;99.90;;;;;;4934517;28;20232;-69
2023/01/22 03:41:16;;;;;;;33.63;18.67;;;5.10;99.90;;;;;;4933836;28;20225;-68
2023/01/22 03:44:13;;;;;;;32.47;18.00;;;5.00;99.90;;;;;;4941494;28;20327;-68
2023/01/22 03:47:03;;;;;;;33.43;18.90;;;5.00;99.90;;;;;;4944066;28;20259;-70
2023/01/22 03:49:52;;;;;;;34.23;17.73;;;5.00;99.90;;;;;;4936617;28;20524;-68
2023/01/22 03:52:41;;;;;;;31.63;18.07;;;4.90;99.90;;;;;;4932831;28;20217;-69
2023/01/22 03:55:31;;;;;;;32.37;18.13;;;4.90;99.90;;;;;;4936228;28;20728;-69
2023/01/22 03:58:23;;;;;;;32.50;17.80;;;4.80;99.90;;;;;;4938441;28;20282;-70
2023/01/22 04:01:16;;;;;;;31.93;17.90;;;5.00;99.90;;;;;;4947295;28;20239;-68
2023/01/22 04:04:06;;;;;;;32.90;18.07;;;4.80;99.90;;;;;;4943975;28;20222;-71
2023/01/22 04:06:58;;;;;;;31.37;18.43;;;4.70;99.90;;;;;;4907031;29;20230;-68
2023/01/22 04:09:47;;;;;;;33.50;19.03;;;4.80;99.90;;;;;;4922514;28;20240;-70
2023/01/22 04:12:36;;;;;;;34.13;18.07;;;4.90;99.90;;;;;;4947521;28;20647;-69
2023/01/22 04:15:25;;;;;;;32.23;17.93;;;4.70;99.90;;;;;;4915218;28;20303;-70
2023/01/22 04:18:17;;;;;;;31.40;18.50;;;4.80;99.90;;;;;;4921185;29;20220;-69
2023/01/22 04:21:24;;;;;;;33.70;18.50;;;4.70;99.90;;;;;;4935331;28;20523;-71
2023/01/22 04:24:15;;;;;;;35.27;18.87;;;4.80;99.90;;;;;;4940614;28;20228;-68
2023/01/22 04:27:04;;;;;;;34.20;18.80;;;4.80;99.90;;;;;;4946661;28;20761;-68
2023/01/22 04:29:53;;;;;;;30.87;18.10;;;4.90;99.90;;;;;;4917407;28;20376;-68
2023/01/22 04:32:43;;;;;;;33.60;18.07;;;4.80;99.90;;;;;;4937593;28;20598;-71
2023/01/22 04:35:51;;;;;;;29.47;17.47;;;4.70;99.90;;;;;;4945580;28;20252;-69
2023/01/22 04:38:41;;;;;;;31.83;17.27;;;4.60;99.90;;;;;;4918969;28;20260;-69
2023/01/22 04:41:33;;;;;;;30.03;17.70;;;4.70;99.90;;;;;;4950036;28;20840;-67
2023/01/22 04:44:22;;;;;;;32.37;17.87;;;4.70;99.90;;;;;;4947289;28;20228;-68
2023/01/22 04:47:11;;;;;;;30.87;17.03;;;4.70;99.90;;;;;;4931035;28;20224;-70
2023/01/22 04:50:02;;;;;;;30.83;17.57;;;4.60;99.90;;;;;;4924183;28;20236;-69
2023/01/22 04:52:53;;;;;;;31.50;18.70;;;4.50;99.90;;;;;;4929732;28;20650;-70
2023/01/22 04:55:42;;;;;;;30.13;17.50;;;4.70;99.90;;;;;;4946845;28;20238;-70
2023/01/22 04:58:33;;;;;;;31.10;17.70;;;4.70;99.90;;;;;;4948413;28;20330;-71
2023/01/22 05:01:26;;;;;;;29.43;17.17;;;4.60;99.90;;;;;;4934358;28;20245;-71
2023/01/22 05:04:15;;;;;;;34.40;17.77;;;4.60;99.90;;;;;;4945937;28;20280;-71
2023/01/22 05:07:04;;;;;;;32.97;19.07;;;4.60;99.90;;;;;;4946200;28;20240;-70
2023/01/22 05:09:54;;;;;;;29.13;17.13;;;4.40;99.90;;;;;;4936223;28;20319;-70
2023/01/22 05:12:42;;;;;;;32.27;18.43;;;4.50;99.90;;;;;;4924458;28;20784;-70
2023/01/22 05:15:31;;;;;;;32.83;18.27;;;4.50;99.90;;;;;;4934551;28;20244;-71
2023/01/22 05:18:26;;;;;;;35.67;19.87;;;4.50;99.90;;;;;;4948050;28;20243;-71
2023/01/22 05:21:14;;;;;;;31.80;18.33;;;4.50;99.90;;;;;;4923634;29;20583;-71
2023/01/22 05:24:04;;;;;;;31.57;18.13;;;4.50;99.90;;;;;;4945974;28;20272;-71
2023/01/22 05:26:54;;;;;;;31.73;16.80;;;4.60;99.90;;;;;;4921322;28;20231;-69
2023/01/22 05:29:50;;;;;;;31.13;17.40;;;4.60;99.90;;;;;;4945523;28;20257;-72
2023/01/22 05:32:58;;;;;;;31.97;17.90;;;4.70;99.90;;;;;;4944144;28;20330;-70
2023/01/22 05:35:56;;;;;;;31.57;18.33;;;4.80;99.90;;;;;;4923965;28;20248;-69
2023/01/22 05:38:46;;;;;;;29.87;17.83;;;4.60;99.90;;;;;;4909186;28;20338;-68
2023/01/22 05:41:36;;;;;;;31.07;17.27;;;4.50;99.90;;;;;;4920368;28;20220;-69
2023/01/22 05:44:26;;;;;;;31.27;18.37;;;4.40;99.90;;;;;;4930127;28;20383;-69
2023/01/22 05:47:16;;;;;;;31.40;18.37;;;4.50;99.90;;;;;;4921132;29;20717;-71
2023/01/22 05:50:23;;;;;;;31.00;16.60;;;4.50;99.90;;;;;;4930889;28;20630;-72
2023/01/22 05:53:26;;;;;;;30.93;17.17;;;4.50;99.90;;;;;;4924036;28;20774;-70
2023/01/22 05:56:16;;;;;;;30.70;16.80;;;4.40;99.90;;;;;;4944285;28;20220;-69
2023/01/22 05:59:08;;;;;;;31.77;17.17;;;4.40;99.90;;;;;;4919738;28;20962;-70
2023/01/22 06:01:58;;;;;;;28.77;16.27;;;4.60;99.90;;;;;;4945863;28;20395;-69
2023/01/22 06:04:47;;;;;;;28.17;17.37;;;4.50;99.90;;;;;;4932500;28;20250;-71
2023/01/22 06:07:44;;;;;;;35.47;18.40;;;4.70;99.90;;;;;;4944057;28;20235;-70
2023/01/22 06:10:33;;;;;;;28.27;16.43;;;4.70;99.90;;;;;;4923479;28;20224;-72
2023/01/22 06:13:22;;;;;;;30.50;17.47;;;4.70;99.90;;;;;;4922670;29;20240;-69
2023/01/22 06:16:14;;;;;;;30.00;17.73;;;4.60;99.90;;;;;;4930722;28;20605;-70
2023/01/22 06:19:28;;;;;;;29.60;17.40;;;4.60;99.90;;;;;;4930957;28;20287;-71
2023/01/22 06:22:18;;;;;;;30.17;17.37;;;4.70;99.90;;;;;;4940321;28;20225;-70
2023/01/22 06:25:11;;;;;;;32.60;18.40;;;4.70;99.90;;;;;;4935371;28;20224;-70
2023/01/22 06:28:23;;;;;;;31.23;17.93;;;4.70;99.90;;;;;;4946785;28;20256;-71
2023/01/22 06:31:12;;;;;;;28.77;16.63;;;4.60;99.90;;;;;;4941266;28;20225;-70
2023/01/22 06:34:04;;;;;;;31.83;17.80;;;4.50;99.90;;;;;;4940932;28;20694;-70
2023/01/22 06:36:55;;;;;;;30.10;17.83;;;4.50;99.90;;;;;;4939690;28;20301;-71
2023/01/22 06:39:46;;;;;;;29.50;18.20;;;4.60;99.90;;;;;;4925416;28;20381;-71
2023/01/22 06:42:46;;;;;;;25.47;16.50;;;4.60;99.90;;;;;;4926503;28;20618;-71
2023/01/22 06:45:35;;;;;;;27.30;16.83;;;4.50;99.90;;;;;;4933156;28;20317;-70
2023/01/22 06:48:27;;;;;;;27.40;16.93;;;4.60;99.90;;;;;;4941690;28;20220;-72
2023/01/22 06:51:18;;;;;;;27.33;16.83;;;4.50;99.90;;;;;;4921599;28;20231;-68
2023/01/22 06:54:11;;;;;;;27.67;16.93;;;4.50;99.90;;;;;;4944343;28;20221;-71
2023/01/22 06:57:00;;;;;;;29.40;16.60;;;4.60;99.90;;;;;;4953196;28;20221;-71
2023/01/22 06:59:49;;;;;;;25.97;16.50;;;4.70;99.90;;;;;;4927068;28;20311;-70
2023/01/22 07:02:38;;;;;;;26.27;16.27;;;4.60;99.90;;;;;;4954473;28;20230;-69
2023/01/22 07:05:27;;;;;;;27.30;16.77;;;4.70;99.90;;;;;;4918953;28;20734;-69
2023/01/22 07:08:16;;;;;;;26.23;16.63;;;4.60;99.90;;;;;;4922148;29;20221;-70
2023/01/22 07:11:06;;;;;;;25.33;15.47;;;4.70;99.90;;;;;;4931920;28;20232;-68
2023/01/22 07:13:55;;;;;;;23.87;14.97;;;4.70;99.90;;;;;;4927944;28;20310;-70
2023/01/22 07:16:44;;;;;;;24.30;15.00;;;4.60;99.90;;;;;;4925915;28;20874;-69
2023/01/22 07:19:32;;;;;;;24.70;15.53;;;4.60;99.90;;;;;;4928965;28;20760;-68
2023/01/22 07:22:21;;;;;;;24.67;16.33;;;4.50;99.90;;;;;;4925762;28;20224;-70
2023/01/22 07:25:10;;;;;;;25.33;15.63;;;4.60;99.90;;;;;;4929385;28;21012;-71
2023/01/22 07:28:02;;;;;;;26.83;16.20;;;4.60;99.90;;;;;;4960299;28;20344;-71
2023/01/22 07:30:50;;;;;;;24.83;16.27;;;4.70;99.90;;;;;;4922093;28;20845;-71
2023/01/22 07:33:39;;;;;;;21.47;13.87;;;4.70;99.90;;;;;;4917597;28;20674;-70
2023/01/22 07:36:28;;;;;;;25.30;16.10;;;4.40;99.90;;;;;;4935615;28;20242;-70
2023/01/22 07:39:17;;;;;;;23.90;15.10;;;4.40;99.90;;;;;;4921577;28;20228;-71
2023/01/22 07:42:06;;;;;;;24.17;14.70;;;4.60;99.90;;;;;;4921365;28;20217;-70
2023/01/22 07:44:58;;;;;;;24.43;15.83;;;4.40;99.90;;;;;;4931582;28;20601;-70
2023/01/22 07:47:50;;;;;;;25.13;15.40;;;4.40;99.90;;;;;;4937314;28;20263;-71
2023/01/22 07:50:39;;;;;;;23.00;15.77;;;4.50;99.90;;;;;;4948983;28;20372;-69
2023/01/22 07:53:29;;;;;;;25.23;16.27;;;4.70;99.90;;;;;;4948730;28;20220;-71
2023/01/22 07:56:18;;;;;;;24.53;15.83;;;4.70;99.90;;;;;;4952617;28;20237;-69
2023/01/22 07:59:06;;;;;;;26.20;16.60;;;4.60;99.90;;;;;;4946258;28;20602;-69
2023/01/22 08:01:56;;;;;;;24.47;15.73;;;4.40;99.90;;;;;;4931630;28;20242;-71
2023/01/22 08:04:45;;;;;;;29.03;17.10;;;4.50;99.90;;;;;;4924403;28;20794;-73
2023/01/22 08:07:34;;;;;;;24.67;15.43;;;4.50;99.90;;;;;;4935631;28;20236;-71
2023/01/22 08:10:23;;;;;;;24.17;15.70;;;4.40;99.90;;;;;;4923295;28;20776;-70
2023/01/22 08:13:12;;;;;;;27.93;16.03;;;4.50;99.90;;;;;;4936487;28;20225;-74
2023/01/22 08:16:01;;;;;;;24.40;15.40;;;4.50;99.90;;;;;;4926082;28;20745;-71
2023/01/22 08:18:55;;;;;;;23.77;15.17;;;4.50;99.90;;;;;;4922318;28;20236;-76
2023/01/22 08:21:47;;;;;;;25.77;15.87;;;4.50;99.90;;;;;;4921143;28;20236;-70
2023/01/22 08:24:36;;;;;;;27.27;16.63;;;4.50;99.90;;;;;;4925511;28;20241;-71
2023/01/22 08:27:25;;;;;;;25.93;15.93;;;4.60;99.90;;;;;;4950393;28;20251;-70
2023/01/22 08:30:14;;;;;;;30.43;17.10;;;4.30;99.90;;;;;;4932078;28;20235;-72
2023/01/22 08:33:03;;;;;;;29.63;16.53;;;4.60;99.90;;;;;;4926095;28;20232;-72
2023/01/22 08:35:54;;;;;;;27.43;17.03;;;4.40;99.90;;;;;;4934580;28;20240;-70
2023/01/22 08:38:43;;;;;;;27.93;16.53;;;4.50;99.90;;;;;;4926621;28;20229;-70
2023/01/22 08:41:32;;;;;;;27.17;16.30;;;4.40;99.90;;;;;;4923864;28;20725;-70
2023/01/22 08:44:21;;;;;;;26.50;16.97;;;4.30;99.90;;;;;;4923987;29;20215;-68
2023/01/22 08:47:10;;;;;;;24.23;15.37;;;4.50;99.90;;;;;;4922231;28;20273;-66
2023/01/22 08:50:00;;;;;;;27.47;15.80;;;4.50;99.90;;;;;;4937666;28;20232;-68
2023/01/22 08:52:51;;;;;;;31.33;16.53;;;4.60;99.90;;;;;;4920063;28;20614;-69
2023/01/22 08:55:49;;;;;;;28.63;16.87;;;4.40;99.90;;;;;;4922647;28;20322;-70
2023/01/22 08:58:37;;;;;;;27.70;16.63;;;4.60;99.90;;;;;;4922656;28;20229;-67
2023/01/22 09:01:26;;;;;;;29.20;16.33;;;4.50;99.90;;;;;;4924655;28;20722;-67
2023/01/22 09:04:18;;;;;;;30.30;17.07;;;4.40;99.90;;;;;;4949542;28;20247;-70
2023/01/22 09:07:07;;;;;;;32.77;17.53;;;4.40;99.90;;;;;;4923031;28;20289;-69
2023/01/22 09:09:57;;;;;;;26.57;16.73;;;4.50;99.90;;;;;;4946646;28;20317;-67
2023/01/22 09:12:46;;;;;;;26.77;17.33;;;4.40;99.90;;;;;;4923153;28;20221;-66
2023/01/22 09:15:35;;;;;;;31.53;17.23;;;4.50;99.90;;;;;;4924032;28;20225;-68
2023/01/22 09:18:24;;;;;;;28.80;17.00;;;4.40;99.90;;;;;;4953462;28;20276;-68
2023/01/22 09:21:13;;;;;;;28.87;17.07;;;4.50;99.90;;;;;;4922634;28;20240;-66
2023/01/22 09:24:01;;;;;;;32.80;18.13;;;4.40;99.90;;;;;;4924507;28;20227;-68
2023/01/22 09:26:51;;;;;;;27.93;17.40;;;4.70;99.90;;;;;;4923868;28;20628;-66
2023/01/22 09:29:40;;;;;;;29.60;17.77;;;4.90;99.90;;;;;;4920268;28;20231;-67
2023/01/22 09:32:30;;;;;;;28.87;15.70;;;5.00;99.90;;;;;;4921786;29;20369;-67
2023/01/22 09:35:18;;;;;;;29.83;16.77;;;4.70;99.90;;;;;;4928193;28;20232;-68
2023/01/22 09:38:08;;;;;;;28.37;16.40;;;4.70;99.90;;;;;;4924015;28;20284;-65
2023/01/22 09:41:00;;;;;;;28.53;16.43;;;4.70;99.90;;;;;;4939730;28;20238;-67
2023/01/22 09:43:55;;;;;;;27.80;16.67;;;4.70;99.90;;;;;;4928253;28;20575;-67
2023/01/22 09:46:47;;;;;;;24.93;15.80;;;4.70;99.90;;;;;;4946966;28;20222;-67
2023/01/22 09:49:38;;;;;;;29.00;16.13;;;4.70;99.90;;;;;;4927602;28;20225;-68
2023/01/22 09:52:30;;;;;;;27.43;15.47;;;4.50;99.90;;;;;;4923161;28;20701;-72
2023/01/22 09:55:22;;;;;;;26.33;15.33;;;4.60;99.90;;;;;;4916342;28;20228;-71
2023/01/22 09:58:15;;;;;;;26.60;15.83;;;4.50;99.90;;;;;;4922541;28;24200;-71
2023/01/22 10:01:06;;;;;;;28.67;16.53;;;4.40;99.90;;;;;;4946596;28;20233;-70
2023/01/22 10:04:00;;;;;;;27.67;15.73;;;4.50;99.90;;;;;;4915083;28;20297;-70
2023/01/22 10:06:50;;;;;;;26.37;16.03;;;4.40;99.90;;;;;;4922355;28;20229;-71
2023/01/22 10:09:40;;;;;;;26.40;15.43;;;4.60;99.90;;;;;;4921733;28;20221;-74
2023/01/22 10:12:30;;;;;;;25.60;15.17;;;4.60;99.90;;;;;;4941717;28;20236;-73
2023/01/22 10:15:23;;;;;;;24.63;15.40;;;4.60;99.90;;;;;;4934565;28;20613;-72
2023/01/22 10:18:30;;;;;;;28.27;15.83;;;4.80;99.90;;;;;;4939014;28;20224;-71
2023/01/22 10:21:24;;;;;;;27.00;14.83;;;4.60;99.90;;;;;;4922122;28;20659;-73
2023/01/22 10:24:14;;;;;;;27.60;16.53;;;4.50;99.90;;;;;;4934629;28;21095;-73
2023/01/22 10:27:11;;;;;;;25.77;15.40;;;4.70;99.90;;;;;;4927199;28;20243;-71
2023/01/22 10:30:02;;;;;;;27.33;15.77;;;4.60;99.90;;;;;;4923883;28;20266;-71
2023/01/22 10:33:02;;;;;;;26.27;15.40;;;4.60;99.90;;;;;;4919252;28;20264;-74
2023/01/22 10:35:55;;;;;;;26.47;15.37;;;4.50;99.90;;;;;;4932560;28;20240;-74
2023/01/22 10:38:48;;;;;;;28.07;15.53;;;4.80;99.90;;;;;;4922882;28;20268;-69
2023/01/22 10:41:37;;;;;;;27.07;15.33;;;4.80;99.90;;;;;;4918015;28;20807;-68
2023/01/22 10:44:27;;;;;;;26.90;15.30;;;4.60;99.90;;;;;;4923874;29;20271;-69
2023/01/22 10:47:19;;;;;;;28.30;16.47;;;4.70;99.90;;;;;;4920655;28;20232;-68
2023/01/22 10:50:15;;;;;;;25.87;16.10;;;4.60;99.90;;;;;;4944710;28;20893;-70
2023/01/22 10:53:15;;;;;;;28.80;14.90;;;4.60;99.90;;;;;;4944112;28;20239;-72
2023/01/22 10:56:07;;;;;;;27.33;15.20;;;4.60;99.90;;;;;;4921647;28;20588;-69
2023/01/22 10:59:03;;;;;;;27.53;14.93;;;4.70;99.90;;;;;;4947719;28;20238;-71
2023/01/22 11:02:01;;;;;;;25.43;14.50;;;4.50;99.90;;;;;;4922884;28;20239;-69
2023/01/22 11:04:51;;;;;;;24.17;14.37;;;4.60;99.90;;;;;;4935106;28;20584;-73
2023/01/22 11:07:40;;;;;;;23.23;14.30;;;4.50;99.90;;;;;;4932089;28;20230;-74
2023/01/22 11:10:47;;;;;;;26.13;14.87;;;4.60;99.90;;;;;;4925006;28;20239;-75
2023/01/22 11:13:45;;;;;;;25.90;14.53;;;4.60;99.90;;;;;;4950986;28;20225;-75
2023/01/22 11:16:37;;;;;;;23.87;14.63;;;4.40;99.90;;;;;;4921967;28;20235;-69
2023/01/22 11:19:31;;;;;;;27.53;14.50;;;4.50;99.90;;;;;;4922700;28;20598;-69
2023/01/22 11:22:32;;;;;;;25.07;14.73;;;4.40;99.90;;;;;;4942888;28;20238;-72
2023/01/22 11:25:21;;;;;;;27.07;15.47;;;4.40;99.90;;;;;;4923028;28;20725;-69
2023/01/22 11:28:22;;;;;;;29.27;15.43;;;4.40;99.90;;;;;;4919161;28;20719;-70
2023/01/22 11:31:25;;;;;;;26.70;16.50;;;4.40;99.90;;;;;;4916590;28;20228;-67
2023/01/22 11:34:39;;;;;;;30.47;16.53;;;4.20;99.90;;;;;;4916088;28;20236;-68
2023/01/22 11:37:41;;;;;;;26.40;15.23;;;4.20;99.90;;;;;;4931156;28;20240;-69
2023/01/22 11:40:32;;;;;;;26.63;15.63;;;4.20;99.90;;;;;;4941723;28;20758;-69
2023/01/22 11:43:35;;;;;;;32.80;17.10;;;4.40;99.90;;;;;;4914815;28;20797;-70
2023/01/22 11:46:39;;;;;;;29.83;15.93;;;4.40;99.90;;;;;;4945557;28;20243;-68
2023/01/22 11:49:41;;;;;;;30.50;16.23;;;4.30;99.90;;;;;;4944511;28;20650;-70
2023/01/22 11:52:44;;;;;;;29.40;15.93;;;4.10;99.90;;;;;;4914919;28;20678;-67
2023/01/22 11:55:55;;;;;;;30.77;16.83;;;4.30;99.90;;;;;;4917300;28;20765;-67
2023/01/22 11:58:54;;;;;;;33.67;18.23;;;4.20;99.90;;;;;;4914584;28;20243;-66
2023/01/22 12:02:05;;;;;;;34.93;17.33;;;4.30;99.90;;;;;;4918742;28;20225;-74
2023/01/22 12:05:09;;;;;;;31.70;17.40;;;4.20;99.90;;;;;;4935501;28;20375;-66
2023/01/22 12:08:08;;;;;;;34.90;18.80;;;3.90;99.90;;;;;;4945375;28;20224;-66
2023/01/22 12:11:21;;;;;;;35.80;18.00;;;3.90;99.90;;;;;;4930230;28;20240;-65
2023/01/22 12:14:39;;;;;;;31.60;18.13;;;3.90;99.90;;;;;;4923159;28;20694;-66
2023/01/22 12:17:38;;;;;;;35.73;19.23;;;4.00;99.90;;;;;;4908609;29;20237;-68
2023/01/22 12:20:43;;;;;;;37.77;18.33;;;3.80;99.90;;;;;;4938738;28;20335;-68
2023/01/22 12:23:38;;;;;;;36.50;18.47;;;3.70;99.90;;;;;;4942373;28;20774;-67
2023/01/22 12:26:31;;;;;;;32.87;18.47;;;3.80;99.90;;;;;;4930477;28;20232;-67
2023/01/22 12:29:27;;;;;;;35.97;18.43;;;4.10;99.90;;;;;;4918234;28;20307;-68
2023/01/22 12:32:25;;;;;;;34.70;18.63;;;3.90;99.90;;;;;;4922924;28;20313;-67
2023/01/22 12:35:17;;;;;;;34.23;18.33;;;3.50;99.90;;;;;;4926173;28;20606;-67
2023/01/22 12:38:15;;;;;;;34.87;17.70;;;3.60;99.90;;;;;;4920712;28;20240;-68
2023/01/22 12:41:17;;;;;;;33.07;17.73;;;3.60;99.90;;;;;;4922077;28;20350;-66
2023/01/22 12:44:17;;;;;;;30.87;18.00;;;3.40;99.90;;;;;;4925116;28;20286;-68
2023/01/22 12:47:14;;;;;;;29.87;17.50;;;3.40;99.90;;;;;;4921292;28;20240;-67
2023/01/22 12:50:17;;;;;;;31.53;17.07;;;3.40;99.90;;;;;;4920786;28;20217;-67
2023/01/22 12:53:22;;;;;;;33.03;17.27;;;3.30;99.90;;;;;;4920429;29;20528;-67
2023/01/22 12:56:15;;;;;;;30.57;16.60;;;3.30;99.90;;;;;;4917253;28;20294;-68
2023/01/22 12:59:04;;;;;;;31.23;17.03;;;3.20;99.90;;;;;;4921030;28;20236;-69
2023/01/22 13:01:59;;;;;;;32.97;17.53;;;3.20;99.90;;;;;;4926748;28;20377;-70
2023/01/22 13:04:49;;;;;;;30.93;17.00;;;3.30;99.90;;;;;;4921780;28;20555;-69
2023/01/22 13:07:44;;;;;;;28.80;16.67;;;3.30;99.90;;;;;;4920613;28;20218;-73
2023/01/22 13:10:34;;;;;;;34.20;16.63;;;3.40;99.90;;;;;;4944318;28;20238;-70
2023/01/22 13:13:30;;;;;;;31.57;16.80;;;3.30;99.90;;;;;;4921211;28;20297;-69
2023/01/22 13:16:23;;;;;;;31.67;16.90;;;3.30;99.90;;;;;;4914471;28;20283;-68
2023/01/22 13:19:21;;;;;;;34.33;16.40;;;3.30;99.90;;;;;;4943107;28;20230;-68
2023/01/22 13:22:15;;;;;;;31.07;17.00;;;3.20;99.90;;;;;;4926196;28;20240;-69
2023/01/22 13:25:07;;;;;;;31.03;16.60;;;3.30;99.90;;;;;;4945270;28;20272;-70
2023/01/22 13:27:56;;;;;;;28.80;16.57;;;3.20;99.90;;;;;;4933167;28;20248;-68
2023/01/22 13:30:56;;;;;;;31.13;16.20;;;3.20;99.90;;;;;;4921166;28;20759;-69
2023/01/22 13:33:54;;;;;;;29.97;16.77;;;3.40;99.90;;;;;;4933462;28;20221;-68
2023/01/22 13:36:47;;;;;;;30.23;15.90;;;3.40;99.90;;;;;;4944314;28;20241;-69
2023/01/22 13:39:36;;;;;;;29.47;16.37;;;3.50;99.90;;;;;;4923087;28;20333;-69
2023/01/22 13:42:28;;;;;;;34.43;16.73;;;3.30;99.90;;;;;;4920904;28;20304;-69
2023/01/22 13:45:22;;;;;;;29.03;16.50;;;3.30;99.90;;;;;;4917038;28;20261;-69
2023/01/22 13:48:16;;;;;;;27.80;15.73;;;3.50;99.90;;;;;;4918987;28;20254;-70
2023/01/22 13:51:09;;;;;;;27.07;16.07;;;3.30;99.90;;;;;;4918020;28;20221;-68
2023/01/22 13:53:57;;;;;;;27.17;15.03;;;3.30;99.90;;;;;;4916922;28;20228;-71
2023/01/22 13:56:46;;;;;;;28.60;15.17;;;3.10;99.90;;;;;;4919123;28;20228;-70
2023/01/22 13:59:37;;;;;;;25.40;15.13;;;3.20;99.90;;;;;;4945951;28;20228;-71
2023/01/22 14:02:29;;;;;;;37.50;16.33;;;3.10;99.90;;;;;;4943158;28;20232;-70
2023/01/22 14:05:20;;;;;;;30.17;16.63;;;3.10;99.90;;;;;;4949910;28;20225;-70
2023/01/22 14:08:11;;;;;;;28.87;15.23;;;3.10;99.90;;;;;;4925752;28;20225;-69
2023/01/22 14:11:01;;;;;;;30.00;15.70;;;3.00;99.90;;;;;;4915206;28;20236;-70
2023/01/22 14:13:51;;;;;;;27.97;16.27;;;2.90;99.90;;;;;;4929149;28;20808;-69
2023/01/22 14:16:42;;;;;;;31.37;16.63;;;3.10;99.90;;;;;;4922504;28;20232;-69
2023/01/22 14:19:31;;;;;;;30.17;15.77;;;3.30;99.90;;;;;;4928176;28;20530;-71
2023/01/22 14:22:19;;;;;;;31.03;16.97;;;3.40;99.90;;;;;;4923513;28;20783;-68
2023/01/22 14:25:09;;;;;;;29.77;16.10;;;3.20;99.90;;;;;;4946473;28;20244;-69
2023/01/22 14:27:59;;;;;;;30.17;16.03;;;3.20;99.90;;;;;;4922017;28;20232;-70
2023/01/22 14:30:49;;;;;;;26.10;14.70;;;3.20;99.90;;;;;;4917931;28;20243;-69
2023/01/22 14:33:39;;;;;;;34.10;17.50;;;3.10;99.90;;;;;;4929888;28;20335;-70
2023/01/22 14:36:29;;;;;;;32.80;16.67;;;3.20;99.90;;;;;;4915778;28;20232;-70
2023/01/22 14:39:18;;;;;;;30.17;15.93;;;3.20;99.90;;;;;;4926826;28;20237;-70
2023/01/22 14:42:07;;;;;;;26.33;15.77;;;3.20;99.90;;;;;;4934667;28;20290;-68
2023/01/22 14:44:55;;;;;;;29.70;16.47;;;3.30;99.90;;;;;;4946294;28;20243;-67
2023/01/22 14:47:45;;;;;;;28.63;15.83;;;3.20;99.90;;;;;;4920116;28;20224;-68
2023/01/22 14:50:35;;;;;;;30.43;15.63;;;3.20;99.90;;;;;;4920490;28;20744;-67